createdAt,value
2023-05-13T00:00:27.195Z,1017.4
2023-05-13T00:01:43.540Z,1017.4
2023-05-13T00:02:59.729Z,1017.3
2023-05-13T00:04:15.927Z,1017.3
2023-05-13T00:05:31.939Z,1017.4
2023-05-13T00:06:47.306Z,1017.3
2023-05-13T00:08:03.502Z,1017.4
2023-05-13T00:09:19.699Z,1017.4
2023-05-13T00:10:35.889Z,1017.4
2023-05-13T00:11:52.080Z,1017.4
2023-05-13T00:13:08.101Z,1017.4
2023-05-13T00:14:24.442Z,1017.4
2023-05-13T00:15:40.634Z,1017.3
2023-05-13T00:16:56.829Z,1017.3
2023-05-13T00:18:12.843Z,1017.4
2023-05-13T00:19:29.042Z,1017.4
2023-05-13T00:20:45.390Z,1017.4
2023-05-13T00:22:01.579Z,1017.4
2023-05-13T00:23:16.781Z,1017.4
2023-05-13T00:24:32.979Z,1017.4
2023-05-13T00:25:49.000Z,1017.4
2023-05-13T00:27:05.348Z,1017.4
2023-05-13T00:28:21.372Z,1017.4
2023-05-13T00:29:37.739Z,1017.4
2023-05-13T00:30:53.743Z,1017.4
2023-05-13T00:32:10.111Z,1017.4
2023-05-13T00:33:26.303Z,1017.4
2023-05-13T00:34:42.316Z,1017.4
2023-05-13T00:35:58.675Z,1017.5
2023-05-13T00:37:14.696Z,1017.5
2023-05-13T00:38:30.872Z,1017.5
2023-05-13T00:39:46.257Z,1017.5
2023-05-13T00:41:02.280Z,1017.5
2023-05-13T00:42:18.459Z,1017.5
2023-05-13T00:43:34.649Z,1017.5
2023-05-13T00:44:50.836Z,1017.5
2023-05-13T00:46:07.204Z,1017.4
2023-05-13T00:47:23.390Z,1017.5
2023-05-13T00:48:39.406Z,1017.5
2023-05-13T00:49:55.587Z,1017.5
2023-05-13T00:51:11.782Z,1017.6
2023-05-13T00:52:27.981Z,1017.5
2023-05-13T00:53:44.161Z,1017.5
2023-05-13T00:55:00.355Z,1017.6
2023-05-13T00:56:15.552Z,1017.5
2023-05-13T00:57:31.735Z,1017.5
2023-05-13T00:58:47.926Z,1017.6
2023-05-13T01:00:04.294Z,1017.6
2023-05-13T01:01:20.484Z,1017.6
2023-05-13T01:02:36.493Z,1017.6
2023-05-13T01:03:52.689Z,1017.7
2023-05-13T01:05:08.881Z,1017.6
2023-05-13T01:06:25.066Z,1017.7
2023-05-13T01:07:41.425Z,1017.7
2023-05-13T01:08:57.441Z,1017.6
2023-05-13T01:10:13.617Z,1017.7
2023-05-13T01:11:29.993Z,1017.7
2023-05-13T01:12:45.022Z,1017.7
2023-05-13T01:14:01.387Z,1017.6
2023-05-13T01:15:17.401Z,1017.7
2023-05-13T01:16:33.577Z,1017.7
2023-05-13T01:17:49.960Z,1017.7
2023-05-13T01:19:05.955Z,1017.7
2023-05-13T01:20:22.160Z,1017.7
2023-05-13T01:21:38.342Z,1017.7
2023-05-13T01:22:54.713Z,1017.7
2023-05-13T01:24:10.902Z,1017.7
2023-05-13T01:25:26.902Z,1017.8
2023-05-13T01:26:43.271Z,1017.8
2023-05-13T01:27:59.293Z,1017.8
2023-05-13T01:29:14.663Z,1017.8
2023-05-13T01:30:30.865Z,1017.8
2023-05-13T01:31:46.868Z,1017.8
2023-05-13T01:33:03.063Z,1017.9
2023-05-13T01:34:19.241Z,1017.9
2023-05-13T01:35:35.440Z,1017.8
2023-05-13T01:36:51.815Z,1017.9
2023-05-13T01:38:08.001Z,1017.8
2023-05-13T01:39:24.175Z,1017.8
2023-05-13T01:40:40.373Z,1017.9
2023-05-13T01:41:56.380Z,1017.9
2023-05-13T01:43:12.574Z,1017.9
2023-05-13T01:44:28.761Z,1017.8
2023-05-13T01:45:43.960Z,1017.9
2023-05-13T01:47:00.147Z,1017.8
2023-05-13T01:48:16.517Z,1017.9
2023-05-13T01:49:32.719Z,1017.9
2023-05-13T01:50:48.723Z,1017.9
2023-05-13T01:52:05.090Z,1017.9
2023-05-13T01:53:21.090Z,1017.9
2023-05-13T01:54:37.282Z,1017.8
2023-05-13T01:55:53.458Z,1017.9
2023-05-13T01:57:09.651Z,1017.9
2023-05-13T01:58:26.039Z,1017.9
2023-05-13T01:59:42.039Z,1017.9
2023-05-13T02:00:58.219Z,1017.8
2023-05-13T02:02:13.613Z,1017.9
2023-05-13T02:03:29.607Z,1017.9
2023-05-13T02:04:45.986Z,1017.9
2023-05-13T02:06:01.993Z,1017.9
2023-05-13T02:07:18.185Z,1017.9
2023-05-13T02:08:34.372Z,1018
2023-05-13T02:09:50.558Z,1017.9
2023-05-13T02:11:06.751Z,1017.9
2023-05-13T02:12:22.930Z,1017.9
2023-05-13T02:13:39.127Z,1017.9
2023-05-13T02:14:55.318Z,1017.9
2023-05-13T02:16:11.504Z,1018
2023-05-13T02:17:27.875Z,1017.9
2023-05-13T02:18:43.089Z,1017.9
2023-05-13T02:19:59.273Z,1017.9
2023-05-13T02:21:15.280Z,1017.9
2023-05-13T02:22:31.452Z,1017.9
2023-05-13T02:23:47.841Z,1017.9
2023-05-13T02:25:03.832Z,1018
2023-05-13T02:26:20.214Z,1017.9
2023-05-13T02:27:36.417Z,1018
2023-05-13T02:28:52.396Z,1018
2023-05-13T02:30:08.786Z,1018
2023-05-13T02:31:24.773Z,1018
2023-05-13T02:32:41.172Z,1017.9
2023-05-13T02:33:57.359Z,1018
2023-05-13T02:35:12.355Z,1017.9
2023-05-13T02:36:28.544Z,1018
2023-05-13T02:37:44.737Z,1018
2023-05-13T02:39:01.137Z,1017.9
2023-05-13T02:40:17.110Z,1018
2023-05-13T02:41:33.500Z,1018
2023-05-13T02:42:48.712Z,1018
2023-05-13T02:44:04.712Z,1018
2023-05-13T02:45:20.903Z,1018
2023-05-13T02:46:37.076Z,1018
2023-05-13T02:47:53.263Z,1018
2023-05-13T02:49:09.653Z,1018
2023-05-13T02:50:25.640Z,1018
2023-05-13T02:51:41.844Z,1018
2023-05-13T02:52:58.029Z,1018
2023-05-13T02:54:14.207Z,1018
2023-05-13T02:55:30.611Z,1018
2023-05-13T02:56:46.594Z,1018
2023-05-13T02:58:02.780Z,1018
2023-05-13T02:59:17.988Z,1018
2023-05-13T03:00:34.180Z,1018
2023-05-13T03:01:50.368Z,1018
2023-05-13T03:03:06.552Z,1018
2023-05-13T03:04:22.938Z,1018.1
2023-05-13T03:05:38.939Z,1018
2023-05-13T03:06:55.314Z,1018.1
2023-05-13T03:08:11.527Z,1018.1
2023-05-13T03:09:27.694Z,1018
2023-05-13T03:10:43.677Z,1018
2023-05-13T03:11:59.876Z,1018.1
2023-05-13T03:13:16.000Z,1018.1
2023-05-13T03:14:32.256Z,1018.1
2023-05-13T03:15:47.446Z,1018.1
2023-05-13T03:17:03.839Z,1018.1
2023-05-13T03:18:20.037Z,1018.1
2023-05-13T03:19:36.216Z,1018.1
2023-05-13T03:20:52.411Z,1018.1
2023-05-13T03:22:08.396Z,1018.2
2023-05-13T03:23:24.582Z,1018.2
2023-05-13T03:24:40.785Z,1018.1
2023-05-13T03:25:56.967Z,1018.2
2023-05-13T03:27:13.367Z,1018.2
2023-05-13T03:28:29.329Z,1018.2
2023-05-13T03:29:45.728Z,1018.2
2023-05-13T03:31:01.934Z,1018.2
2023-05-13T03:32:17.141Z,1018.2
2023-05-13T03:33:33.310Z,1018.2
2023-05-13T03:34:49.499Z,1018.2
2023-05-13T03:36:05.693Z,1018.2
2023-05-13T03:37:21.671Z,1018.2
2023-05-13T03:38:38.000Z,1018.2
2023-05-13T03:39:54.266Z,1018.2
2023-05-13T03:41:10.249Z,1018.2
2023-05-13T03:42:26.634Z,1018.2
2023-05-13T03:43:42.828Z,1018.2
2023-05-13T03:44:58.818Z,1018.2
2023-05-13T03:46:15.203Z,1018.2
2023-05-13T03:47:31.387Z,1018.3
2023-05-13T03:48:46.401Z,1018.3
2023-05-13T03:50:02.587Z,1018.2
2023-05-13T03:51:18.771Z,1018.3
2023-05-13T03:52:34.961Z,1018.3
2023-05-13T03:53:51.147Z,1018.3
2023-05-13T03:55:07.343Z,1018.3
2023-05-13T03:56:23.731Z,1018.3
2023-05-13T03:57:39.717Z,1018.3
2023-05-13T03:58:56.107Z,1018.3
2023-05-13T04:00:12.084Z,1018.3
2023-05-13T04:01:28.273Z,1018.4
2023-05-13T04:02:44.689Z,1018.4
2023-05-13T04:04:00.873Z,1018.4
2023-05-13T04:05:16.072Z,1018.4
2023-05-13T04:06:32.056Z,1018.5
2023-05-13T04:07:48.228Z,1018.5
2023-05-13T04:09:04.641Z,1018.5
2023-05-13T04:10:20.830Z,1018.5
2023-05-13T04:11:37.020Z,1018.5
2023-05-13T04:12:53.199Z,1018.5
2023-05-13T04:14:09.174Z,1018.6
2023-05-13T04:15:25.581Z,1018.5
2023-05-13T04:16:41.552Z,1018.6
2023-05-13T04:17:57.745Z,1018.6
2023-05-13T04:19:13.942Z,1018.6
2023-05-13T04:20:30.349Z,1018.6
2023-05-13T04:21:45.551Z,1018.6
2023-05-13T04:23:01.511Z,1018.6
2023-05-13T04:24:17.913Z,1018.6
2023-05-13T04:25:34.107Z,1018.7
2023-05-13T04:26:50.091Z,1018.7
2023-05-13T04:28:06.495Z,1018.7
2023-05-13T04:29:22.451Z,1018.7
2023-05-13T04:30:38.640Z,1018.7
2023-05-13T04:31:54.829Z,1018.7
2023-05-13T04:33:11.024Z,1018.7
2023-05-13T04:34:27.425Z,1018.7
2023-05-13T04:35:43.623Z,1018.7
2023-05-13T04:36:59.809Z,1018.7
2023-05-13T04:38:14.791Z,1018.7
2023-05-13T04:39:31.217Z,1018.8
2023-05-13T04:40:47.398Z,1018.8
2023-05-13T04:42:03.591Z,1018.7
2023-05-13T04:43:19.557Z,1018.7
2023-05-13T04:44:35.745Z,1018.8
2023-05-13T04:45:51.932Z,1018.8
2023-05-13T04:47:08.108Z,1018.8
2023-05-13T04:48:24.536Z,1018.9
2023-05-13T04:49:40.717Z,1018.8
2023-05-13T04:50:56.689Z,1018.9
2023-05-13T04:52:12.866Z,1018.8
2023-05-13T04:53:29.277Z,1018.9
2023-05-13T04:54:44.268Z,1018.8
2023-05-13T04:56:00.679Z,1018.9
2023-05-13T04:57:16.639Z,1018.8
2023-05-13T04:58:33.064Z,1018.9
2023-05-13T04:59:49.243Z,1018.9
2023-05-13T05:01:05.203Z,1018.8
2023-05-13T05:02:21.620Z,1018.9
2023-05-13T05:03:37.816Z,1018.9
2023-05-13T05:04:53.781Z,1018.9
2023-05-13T05:06:10.198Z,1018.9
2023-05-13T05:07:26.377Z,1019
2023-05-13T05:08:42.337Z,1018.9
2023-05-13T05:09:58.523Z,1018.9
2023-05-13T05:11:13.729Z,1019
2023-05-13T05:12:30.155Z,1019
2023-05-13T05:13:46.106Z,1019
2023-05-13T05:15:02.536Z,1019
2023-05-13T05:16:18.495Z,1019
2023-05-13T05:17:34.682Z,1019
2023-05-13T05:18:51.102Z,1018.9
2023-05-13T05:20:07.059Z,1019
2023-05-13T05:21:23.478Z,1019
2023-05-13T05:22:39.439Z,1019
2023-05-13T05:23:55.609Z,1019
2023-05-13T05:25:12.036Z,1019
2023-05-13T05:26:28.227Z,1019.1
2023-05-13T05:27:43.423Z,1019.1
2023-05-13T05:28:59.614Z,1019
2023-05-13T05:30:15.574Z,1019
2023-05-13T05:31:31.759Z,1019
2023-05-13T05:32:47.947Z,1019.1
2023-05-13T05:34:04.370Z,1019.1
2023-05-13T05:35:20.332Z,1019.1
2023-05-13T05:36:36.758Z,1019
2023-05-13T05:37:52.937Z,1019
2023-05-13T05:39:08.900Z,1019.2
2023-05-13T05:40:25.324Z,1019.1
2023-05-13T05:41:41.281Z,1019.1
2023-05-13T05:42:57.709Z,1019.1
2023-05-13T05:44:12.910Z,1019.1
2023-05-13T05:45:28.862Z,1019.1
2023-05-13T05:46:45.044Z,1019.1
2023-05-13T05:48:01.000Z,1019.1
2023-05-13T05:49:17.429Z,1019.1
2023-05-13T05:50:33.851Z,1019.2
2023-05-13T05:51:49.802Z,1019.2
2023-05-13T05:53:05.992Z,1019.1
2023-05-13T05:54:22.179Z,1019.2
2023-05-13T05:55:38.605Z,1019.2
2023-05-13T05:56:54.791Z,1019.2
2023-05-13T05:58:10.741Z,1019.2
2023-05-13T05:59:27.174Z,1019.2
2023-05-13T06:00:42.147Z,1019.2
2023-05-13T06:01:58.569Z,1019.2
2023-05-13T06:03:14.749Z,1019.1
2023-05-13T06:04:30.700Z,1019.2
2023-05-13T06:05:47.134Z,1019.2
2023-05-13T06:07:03.330Z,1019.2
2023-05-13T06:08:19.274Z,1019.2
2023-05-13T06:09:35.450Z,1019.1
2023-05-13T06:10:51.639Z,1019.2
2023-05-13T06:12:08.078Z,1019.2
2023-05-13T06:13:24.014Z,1019.2
2023-05-13T06:14:40.451Z,1019.2
2023-05-13T06:15:56.643Z,1019.2
2023-05-13T06:17:11.612Z,1019.2
2023-05-13T06:18:28.041Z,1019.1
2023-05-13T06:19:44.217Z,1019.1
2023-05-13T06:21:00.175Z,1019.2
2023-05-13T06:22:16.599Z,1019.1
2023-05-13T06:23:32.544Z,1019.2
2023-05-13T06:24:48.730Z,1019.2
2023-05-13T06:26:04.920Z,1019.2
2023-05-13T06:27:21.356Z,1019.2
2023-05-13T06:28:37.548Z,1019.2
2023-05-13T06:29:53.723Z,1019.2
2023-05-13T06:31:09.920Z,1019.2
2023-05-13T06:32:26.092Z,1019.1
2023-05-13T06:33:41.056Z,1019.1
2023-05-13T06:34:57.243Z,1019.2
2023-05-13T06:36:13.428Z,1019.1
2023-05-13T06:37:29.861Z,1019.1
2023-05-13T06:38:45.806Z,1019.1
2023-05-13T06:40:02.004Z,1019
2023-05-13T06:41:18.420Z,1019.1
2023-05-13T06:42:34.000Z,1019.1
2023-05-13T06:43:50.800Z,1019.1
2023-05-13T06:45:06.990Z,1019.1
2023-05-13T06:46:22.935Z,1019.1
2023-05-13T06:47:39.360Z,1019
2023-05-13T06:48:55.295Z,1019.1
2023-05-13T06:50:10.761Z,1019.1
2023-05-13T06:51:26.698Z,1019
2023-05-13T06:52:42.877Z,1018.9
2023-05-13T06:53:59.063Z,1018.9
2023-05-13T06:55:15.258Z,1019
2023-05-13T06:56:31.687Z,1019
2023-05-13T06:57:46.646Z,1018.9
2023-05-13T06:59:02.824Z,1018.9
2023-05-13T07:00:19.273Z,1018.9
2023-05-13T07:01:35.216Z,1018.9
2023-05-13T07:02:51.388Z,1018.9
2023-05-13T07:04:07.575Z,1018.9
2023-05-13T07:05:24.022Z,1018.9
2023-05-13T07:06:40.215Z,1018.9
2023-05-13T07:07:56.390Z,1018.8
2023-05-13T07:09:12.333Z,1018.9
2023-05-13T07:10:28.516Z,1018.8
2023-05-13T07:11:44.700Z,1018.9
2023-05-13T07:13:01.145Z,1018.9
2023-05-13T07:14:16.096Z,1018.9
2023-05-13T07:15:32.532Z,1018.8
2023-05-13T07:16:48.475Z,1018.8
2023-05-13T07:18:04.651Z,1018.8
2023-05-13T07:19:21.093Z,1018.8
2023-05-13T07:20:37.032Z,1018.8
2023-05-13T07:21:53.462Z,1018.8
2023-05-13T07:23:09.402Z,1018.8
2023-05-13T07:24:25.846Z,1018.8
2023-05-13T07:26:58.211Z,1018.7
2023-05-13T07:28:14.404Z,1018.7
2023-05-13T07:29:30.346Z,1018.8
2023-05-13T07:30:45.794Z,1018.8
2023-05-13T07:32:01.730Z,1018.7
2023-05-13T07:33:17.912Z,1018.7
2023-05-13T07:34:34.355Z,1018.8
2023-05-13T07:35:50.283Z,1018.7
2023-05-13T07:37:06.465Z,1018.6
2023-05-13T07:38:22.925Z,1018.7
2023-05-13T07:39:38.853Z,1018.7
2023-05-13T07:40:55.040Z,1018.7
2023-05-13T07:42:11.225Z,1018.6
2023-05-13T07:43:27.665Z,1018.6
2023-05-13T07:44:43.861Z,1018.7
2023-05-13T07:46:00.048Z,1018.6
2023-05-13T07:47:15.242Z,1018.7
2023-05-13T07:48:31.182Z,1018.7
2023-05-13T07:49:47.366Z,1018.7
2023-05-13T07:51:03.550Z,1018.7
2023-05-13T07:52:19.730Z,1018.7
2023-05-13T07:53:36.190Z,1018.7
2023-05-13T07:54:52.102Z,1018.6
2023-05-13T07:56:08.289Z,1018.6
2023-05-13T07:57:24.742Z,1018.6
2023-05-13T07:58:40.934Z,1018.6
2023-05-13T07:59:56.861Z,1018.6
2023-05-13T08:01:13.295Z,1018.6
2023-05-13T08:02:29.486Z,1018.5
2023-05-13T08:03:45.426Z,1018.6
2023-05-13T08:05:00.610Z,1018.5
2023-05-13T08:06:16.814Z,1018.6
2023-05-13T08:07:32.997Z,1018.5
2023-05-13T08:08:49.181Z,1018.6
2023-05-13T08:10:05.360Z,1018.6
2023-05-13T08:11:21.549Z,1018.6
2023-05-13T08:12:38.002Z,1018.6
2023-05-13T08:13:54.190Z,1018.6
2023-05-13T08:15:10.379Z,1018.7
2023-05-13T08:16:26.557Z,1018.6
2023-05-13T08:17:42.751Z,1018.6
2023-05-13T08:18:58.683Z,1018.7
2023-05-13T08:20:14.872Z,1018.7
2023-05-13T08:21:30.063Z,1018.7
2023-05-13T08:22:46.514Z,1018.7
2023-05-13T08:24:02.699Z,1018.7
2023-05-13T08:25:18.898Z,1018.7
2023-05-13T08:26:34.817Z,1018.7
2023-05-13T08:27:51.000Z,1018.7
2023-05-13T08:29:07.452Z,1018.8
2023-05-13T08:30:23.375Z,1018.7
2023-05-13T08:31:39.558Z,1018.8
2023-05-13T08:32:56.023Z,1018.7
2023-05-13T08:34:11.934Z,1018.7
2023-05-13T08:35:28.390Z,1018.7
2023-05-13T08:36:44.583Z,1018.8
2023-05-13T08:37:59.783Z,1018.7
2023-05-13T08:39:15.968Z,1018.8
2023-05-13T08:40:31.881Z,1018.8
2023-05-13T08:41:48.082Z,1018.7
2023-05-13T08:43:04.261Z,1018.7
2023-05-13T08:44:20.444Z,1018.8
2023-05-13T08:45:36.625Z,1018.7
2023-05-13T08:46:53.082Z,1018.8
2023-05-13T08:48:09.277Z,1018.8
2023-05-13T08:49:25.201Z,1018.8
2023-05-13T08:50:41.653Z,1018.8
2023-05-13T08:51:57.573Z,1018.8
2023-05-13T08:53:13.757Z,1018.8
2023-05-13T08:54:29.237Z,1018.8
2023-05-13T08:55:45.409Z,1018.8
2023-05-13T08:57:01.339Z,1018.8
2023-05-13T08:58:17.524Z,1018.8
2023-05-13T08:59:33.704Z,1018.7
2023-05-13T09:00:50.164Z,1018.8
2023-05-13T09:02:06.348Z,1018.7
2023-05-13T09:03:22.548Z,1018.8
2023-05-13T09:04:38.449Z,1018.7
2023-05-13T09:05:54.916Z,1018.7
2023-05-13T09:07:11.107Z,1018.7
2023-05-13T09:08:27.015Z,1018.6
2023-05-13T09:09:43.468Z,1018.7
2023-05-13T09:10:58.413Z,1018.7
2023-05-13T09:12:14.588Z,1018.7
2023-05-13T09:13:31.056Z,1018.7
2023-05-13T09:14:46.959Z,1018.7
2023-05-13T09:16:03.437Z,1018.6
2023-05-13T09:17:19.331Z,1018.6
2023-05-13T09:18:35.795Z,1018.6
2023-05-13T09:19:51.722Z,1018.6
2023-05-13T09:21:07.906Z,1018.6
2023-05-13T09:22:24.096Z,1018.6
2023-05-13T09:23:40.286Z,1018.6
2023-05-13T09:24:56.732Z,1018.7
2023-05-13T09:26:12.933Z,1018.6
2023-05-13T09:27:27.858Z,1018.6
2023-05-13T09:28:44.321Z,1018.6
2023-05-13T09:30:00.512Z,1018.6
2023-05-13T09:31:16.684Z,1018.5
2023-05-13T09:32:32.887Z,1018.5
2023-05-13T09:33:48.786Z,1018.4
2023-05-13T09:35:04.973Z,1018.5
2023-05-13T09:36:21.156Z,1018.5
2023-05-13T09:37:37.621Z,1018.4
2023-05-13T09:38:53.542Z,1018.5
2023-05-13T09:40:10.008Z,1018.4
2023-05-13T09:41:25.902Z,1018.4
2023-05-13T09:42:42.376Z,1018.5
2023-05-13T09:43:57.584Z,1018.4
2023-05-13T09:45:13.764Z,1018.4
2023-05-13T09:46:29.956Z,1018.4
2023-05-13T09:47:46.150Z,1018.4
2023-05-13T09:49:02.043Z,1018.3
2023-05-13T09:50:18.227Z,1018.4
2023-05-13T09:51:34.709Z,1018.4
2023-05-13T09:52:50.884Z,1018.4
2023-05-13T09:54:07.084Z,1018.4
2023-05-13T09:55:23.262Z,1018.4
2023-05-13T09:56:39.449Z,1018.4
2023-05-13T09:57:55.645Z,1018.3
2023-05-13T09:59:11.828Z,1018.3
2023-05-13T10:00:27.027Z,1018.4
2023-05-13T10:01:42.927Z,1018.3
2023-05-13T10:02:59.410Z,1018.3
2023-05-13T10:04:15.601Z,1018.3
2023-05-13T10:05:31.506Z,1018.3
2023-05-13T10:06:47.964Z,1018.2
2023-05-13T10:08:04.147Z,1018.2
2023-05-13T10:09:20.343Z,1018.2
2023-05-13T10:10:36.528Z,1018.2
2023-05-13T10:11:52.705Z,1018.2
2023-05-13T10:13:08.610Z,1018.2
2023-05-13T10:14:25.092Z,1018.2
2023-05-13T10:15:41.268Z,1018.2
2023-05-13T10:16:56.479Z,1018.2
2023-05-13T10:18:12.664Z,1018.3
2023-05-13T10:19:28.846Z,1018.2
2023-05-13T10:20:44.756Z,1018.1
2023-05-13T10:22:01.237Z,1018.2
2023-05-13T10:23:17.127Z,1018.3
2023-05-13T10:24:33.325Z,1018.2
2023-05-13T10:25:49.508Z,1018.2
2023-05-13T10:27:05.681Z,1018.1
2023-05-13T10:28:21.887Z,1018.1
2023-05-13T10:29:38.351Z,1018.1
2023-05-13T10:30:54.543Z,1018.2
2023-05-13T10:32:10.716Z,1018.1
2023-05-13T10:33:25.642Z,1018.1
2023-05-13T10:34:42.116Z,1018.1
2023-05-13T10:35:58.304Z,1018.1
2023-05-13T10:37:14.489Z,1018.1
2023-05-13T10:38:30.675Z,1018.1
2023-05-13T10:39:46.579Z,1018
2023-05-13T10:41:02.770Z,1018
2023-05-13T10:42:19.236Z,1018
2023-05-13T10:43:35.130Z,1018.1
2023-05-13T10:44:51.618Z,1018.1
2023-05-13T10:46:07.795Z,1018.1
2023-05-13T10:47:23.980Z,1018.2
2023-05-13T10:48:40.178Z,1018.1
2023-05-13T10:49:55.088Z,1018.1
2023-05-13T10:51:11.281Z,1018.1
2023-05-13T10:52:27.458Z,1018
2023-05-13T10:53:43.931Z,1018.1
2023-05-13T10:55:00.119Z,1018
2023-05-13T10:56:16.317Z,1018
2023-05-13T10:57:32.509Z,1018
2023-05-13T10:58:48.405Z,1018.1
2023-05-13T11:00:04.883Z,1018.2
2023-05-13T11:01:21.073Z,1018.2
2023-05-13T11:02:36.951Z,1018.1
2023-05-13T11:03:53.431Z,1018.2
2023-05-13T11:05:09.328Z,1018
2023-05-13T11:06:24.533Z,1018.1
2023-05-13T11:07:41.023Z,1018.1
2023-05-13T11:08:57.209Z,1018.2
2023-05-13T11:10:13.394Z,1018.1
2023-05-13T11:11:29.571Z,1018
2023-05-13T11:12:44.785Z,1018
2023-05-13T11:14:00.683Z,1018
2023-05-13T11:15:17.154Z,1018.1
2023-05-13T11:16:33.359Z,1018.1
2023-05-13T11:17:49.237Z,1018
2023-05-13T11:19:05.723Z,1018
2023-05-13T11:20:21.906Z,1018.1
2023-05-13T11:21:37.794Z,1017.9
2023-05-13T11:22:54.279Z,1017.8
2023-05-13T11:24:10.481Z,1017.8
2023-05-13T11:25:26.663Z,1018
2023-05-13T11:26:42.550Z,1018
2023-05-13T11:27:59.028Z,1017.9
2023-05-13T11:29:13.945Z,1018
2023-05-13T11:30:30.125Z,1017.9
2023-05-13T11:31:46.614Z,1017.9
2023-05-13T11:33:02.794Z,1017.9
2023-05-13T11:34:18.692Z,1017.9
2023-05-13T11:35:35.168Z,1017.9
2023-05-13T11:36:51.362Z,1017.8
2023-05-13T11:38:07.245Z,1017.8
2023-05-13T11:39:23.744Z,1017.8
2023-05-13T11:40:39.929Z,1017.8
2023-05-13T11:41:56.107Z,1017.8
2023-05-13T11:43:12.278Z,1017.8
2023-05-13T11:44:28.464Z,1017.8
2023-05-13T11:45:43.685Z,1017.8
2023-05-13T11:46:59.867Z,1017.7
2023-05-13T11:48:16.070Z,1017.8
2023-05-13T11:49:32.229Z,1017.8
2023-05-13T11:50:48.405Z,1017.7
2023-05-13T11:52:04.583Z,1017.7
2023-05-13T11:53:20.773Z,1017.8
2023-05-13T11:54:37.004Z,1017.7
2023-05-13T11:55:53.151Z,1017.7
2023-05-13T11:57:09.381Z,1017.7
2023-05-13T11:58:25.567Z,1017.7
2023-05-13T11:59:41.742Z,1017.6
2023-05-13T12:00:57.936Z,1017.7
2023-05-13T12:02:13.141Z,1017.7
2023-05-13T12:03:29.289Z,1017.7
2023-05-13T12:04:45.510Z,1017.7
2023-05-13T12:06:01.673Z,1017.7
2023-05-13T12:07:17.861Z,1017.8
2023-05-13T12:08:34.042Z,1017.7
2023-05-13T12:09:50.260Z,1017.6
2023-05-13T12:11:06.445Z,1017.7
2023-05-13T12:12:22.642Z,1017.7
2023-05-13T12:13:38.819Z,1017.6
2023-05-13T12:14:54.980Z,1017.6
2023-05-13T12:16:11.198Z,1017.7
2023-05-13T12:17:27.388Z,1017.6
2023-05-13T12:18:42.590Z,1017.6
2023-05-13T12:19:58.736Z,1017.7
2023-05-13T12:21:14.921Z,1017.6
2023-05-13T12:22:31.109Z,1017.6
2023-05-13T12:23:47.348Z,1017.6
2023-05-13T12:25:03.537Z,1017.7
2023-05-13T12:26:19.674Z,1017.6
2023-05-13T12:27:35.869Z,1017.6
2023-05-13T12:28:52.055Z,1017.5
2023-05-13T12:30:08.251Z,1017.7
2023-05-13T12:31:24.470Z,1017.6
2023-05-13T12:32:40.615Z,1017.7
2023-05-13T12:33:56.802Z,1017.7
2023-05-13T12:35:12.042Z,1017.8
2023-05-13T12:36:28.185Z,1017.7
2023-05-13T12:37:44.381Z,1017.7
2023-05-13T12:39:00.612Z,1017.6
2023-05-13T12:40:16.794Z,1017.6
2023-05-13T12:41:32.983Z,1017.7
2023-05-13T12:42:49.135Z,1017.6
2023-05-13T12:44:05.326Z,1017.6
2023-05-13T12:45:21.554Z,1017.6
2023-05-13T12:46:37.702Z,1017.6
2023-05-13T12:47:53.929Z,1017.7
2023-05-13T12:49:10.102Z,1017.6
2023-05-13T12:50:26.294Z,1017.6
2023-05-13T12:51:41.464Z,1017.6
2023-05-13T12:52:57.637Z,1017.6
2023-05-13T12:54:13.837Z,1017.6
2023-05-13T12:55:30.009Z,1017.6
2023-05-13T12:56:46.255Z,1017.6
2023-05-13T12:58:02.449Z,1017.6
2023-05-13T12:59:18.589Z,1017.6
2023-05-13T13:00:34.779Z,1017.7
2023-05-13T13:01:50.950Z,1017.6
2023-05-13T13:03:07.187Z,1017.6
2023-05-13T13:04:23.368Z,1017.6
2023-05-13T13:05:39.564Z,1017.7
2023-05-13T13:06:55.702Z,1017.6
2023-05-13T13:08:10.910Z,1017.5
2023-05-13T13:09:27.150Z,1017.6
2023-05-13T13:10:43.320Z,1017.5
2023-05-13T13:11:59.464Z,1017.6
2023-05-13T13:13:15.649Z,1017.5
2023-05-13T13:14:31.844Z,1017.5
2023-05-13T13:15:48.035Z,1017.4
2023-05-13T13:17:04.268Z,1017.5
2023-05-13T13:18:20.404Z,1017.5
2023-05-13T13:19:36.598Z,1017.4
2023-05-13T13:20:52.774Z,1017.4
2023-05-13T13:22:08.963Z,1017.5
2023-05-13T13:23:25.159Z,1017.4
2023-05-13T13:24:40.350Z,1017.6
2023-05-13T13:25:56.594Z,1017.5
2023-05-13T13:27:12.787Z,1017.5
2023-05-13T13:28:28.962Z,1017.5
2023-05-13T13:29:45.156Z,1017.5
2023-05-13T13:31:01.348Z,1017.6
2023-05-13T13:32:17.485Z,1017.5
2023-05-13T13:33:33.710Z,1017.5
2023-05-13T13:34:49.900Z,1017.5
2023-05-13T13:36:06.091Z,1017.5
2023-05-13T13:37:22.230Z,1017.5
2023-05-13T13:38:38.425Z,1017.6
2023-05-13T13:39:54.649Z,1017.6
2023-05-13T13:41:09.815Z,1017.5
2023-05-13T13:42:25.993Z,1017.5
2023-05-13T13:43:42.242Z,1017.5
2023-05-13T13:44:58.361Z,1017.5
2023-05-13T13:46:14.552Z,1017.4
2023-05-13T13:47:30.744Z,1017.4
2023-05-13T13:48:46.980Z,1017.5
2023-05-13T13:50:03.129Z,1017.4
2023-05-13T13:51:19.358Z,1017.5
2023-05-13T13:52:35.543Z,1017.5
2023-05-13T13:53:51.678Z,1017.4
2023-05-13T13:55:07.930Z,1017.4
2023-05-13T13:56:24.118Z,1017.5
2023-05-13T13:57:39.258Z,1017.4
2023-05-13T13:58:55.446Z,1017.4
2023-05-13T14:00:11.628Z,1017.4
2023-05-13T14:01:27.875Z,1017.3
2023-05-13T14:02:44.012Z,1017.4
2023-05-13T14:04:00.252Z,1017.4
2023-05-13T14:05:16.432Z,1017.3
2023-05-13T14:06:32.558Z,1017.4
2023-05-13T14:07:48.813Z,1017.4
2023-05-13T14:09:04.000Z,1017.3
2023-05-13T14:10:21.132Z,1017.4
2023-05-13T14:11:37.376Z,1017.3
2023-05-13T14:12:53.564Z,1017.3
2023-05-13T14:14:08.772Z,1017.3
2023-05-13T14:15:24.891Z,1017.2
2023-05-13T14:16:41.083Z,1017.2
2023-05-13T14:17:57.266Z,1017.2
2023-05-13T14:19:13.519Z,1017.1
2023-05-13T14:20:29.706Z,1017.1
2023-05-13T14:21:45.896Z,1017.1
2023-05-13T14:23:02.022Z,1017.1
2023-05-13T14:24:18.197Z,1017.1
2023-05-13T14:25:34.388Z,1017.2
2023-05-13T14:26:50.635Z,1017.2
2023-05-13T14:28:06.764Z,1017.1
2023-05-13T14:29:22.951Z,1017.1
2023-05-13T14:30:38.229Z,1017.1
2023-05-13T14:31:54.336Z,1017.1
2023-05-13T14:33:10.534Z,1017.1
2023-05-13T14:34:26.792Z,1017.1
2023-05-13T14:35:42.903Z,1017.1
2023-05-13T14:38:15.276Z,1017
2023-05-13T14:39:31.469Z,1017.1
2023-05-13T14:40:47.662Z,1017
2023-05-13T14:42:03.910Z,1017.1
2023-05-13T14:43:20.104Z,1017.1
2023-05-13T14:44:36.289Z,1017.2
2023-05-13T14:45:52.474Z,1017.2
2023-05-13T14:47:07.606Z,1017.2
2023-05-13T14:48:23.791Z,1017.2
2023-05-13T14:49:40.051Z,1017
2023-05-13T14:50:56.236Z,1017.1
2023-05-13T14:52:12.416Z,1017
2023-05-13T14:53:28.538Z,1017.1
2023-05-13T14:54:44.724Z,1017.1
2023-05-13T14:56:00.995Z,1017.1
2023-05-13T14:57:17.173Z,1017.1
2023-05-13T14:58:33.354Z,1017.1
2023-05-13T14:59:49.540Z,1017.1
2023-05-13T15:01:05.729Z,1017.1
2023-05-13T15:02:21.850Z,1017.1
2023-05-13T15:03:37.048Z,1017.1
2023-05-13T15:04:53.313Z,1017.1
2023-05-13T15:06:09.431Z,1017.2
2023-05-13T15:07:25.695Z,1017.2
2023-05-13T15:08:41.873Z,1017.1
2023-05-13T15:09:57.984Z,1017.1
2023-05-13T15:11:14.257Z,1017.1
2023-05-13T15:12:30.360Z,1017.1
2023-05-13T15:13:46.551Z,1017.2
2023-05-13T15:15:02.747Z,1017.2
2023-05-13T15:16:18.925Z,1017.2
2023-05-13T15:18:51.311Z,1017.2
2023-05-13T15:20:06.580Z,1017.2
2023-05-13T15:21:22.777Z,1017.1
2023-05-13T15:22:38.892Z,1017.2
2023-05-13T15:23:55.074Z,1017.1
2023-05-13T15:25:11.264Z,1017.1
2023-05-13T15:26:27.449Z,1017.1
2023-05-13T15:27:42.735Z,1017.1
2023-05-13T15:28:58.829Z,1017.1
2023-05-13T15:30:15.035Z,1017.1
2023-05-13T15:31:31.203Z,1017.1
2023-05-13T15:32:47.404Z,1017.1
2023-05-13T15:34:03.658Z,1017.1
2023-05-13T15:35:19.859Z,1017.2
2023-05-13T15:36:36.037Z,1017.1
2023-05-13T15:37:52.230Z,1017.1
2023-05-13T15:39:08.337Z,1017.2
2023-05-13T15:40:24.596Z,1017.2
2023-05-13T15:41:40.714Z,1017.2
2023-05-13T15:42:56.982Z,1017.1
2023-05-13T15:44:12.105Z,1017.1
2023-05-13T15:45:28.000Z,1017.2
2023-05-13T15:46:44.467Z,1017.2
2023-05-13T15:48:00.739Z,1017.3
2023-05-13T15:49:16.850Z,1017.4
2023-05-13T15:50:33.116Z,1017.4
2023-05-13T15:51:49.212Z,1017.4
2023-05-13T15:53:05.403Z,1017.4
2023-05-13T15:54:21.601Z,1017.4
2023-05-13T15:55:37.776Z,1017.5
2023-05-13T15:56:53.966Z,1017.5
2023-05-13T15:58:10.233Z,1017.5
2023-05-13T15:59:26.425Z,1017.5